sensor_id;sensor_type;location;lat;lon;timestamp;P1;durP1;ratioP1;P2;durP2;ratioP2
79052;SDS011;68451;49.510;6.026;2024-03-02T00:01:48;3.10;;;1.60;;
79052;SDS011;68451;49.510;6.026;2024-03-02T00:03:50;2.33;;;2.00;;
79052;SDS011;68451;49.510;6.026;2024-03-02T00:05:53;3.10;;;1.50;;
79052;SDS011;68451;49.510;6.026;2024-03-02T00:09:58;4.90;;;2.10;;
79052;SDS011;68451;49.510;6.026;2024-03-02T00:12:00;2.43;;;1.60;;
79052;SDS011;68451;49.510;6.026;2024-03-02T00:14:02;4.27;;;1.50;;
79052;SDS011;68451;49.510;6.026;2024-03-02T00:16:04;4.43;;;2.13;;
79052;SDS011;68451;49.510;6.026;2024-03-02T00:18:07;3.00;;;1.50;;
79052;SDS011;68451;49.510;6.026;2024-03-02T00:20:15;4.17;;;2.27;;
79052;SDS011;68451;49.510;6.026;2024-03-02T00:22:21;2.83;;;1.90;;
79052;SDS011;68451;49.510;6.026;2024-03-02T00:24:30;3.60;;;1.57;;
79052;SDS011;68451;49.510;6.026;2024-03-02T00:26:34;2.83;;;1.60;;
79052;SDS011;68451;49.510;6.026;2024-03-02T00:28:36;2.75;;;1.65;;
79052;SDS011;68451;49.510;6.026;2024-03-02T00:32:57;5.77;;;1.53;;
79052;SDS011;68451;49.510;6.026;2024-03-02T00:35:00;2.80;;;1.97;;
79052;SDS011;68451;49.510;6.026;2024-03-02T00:39:04;6.13;;;1.98;;
79052;SDS011;68451;49.510;6.026;2024-03-02T00:41:09;3.10;;;1.70;;
79052;SDS011;68451;49.510;6.026;2024-03-02T00:45:47;3.40;;;1.87;;
79052;SDS011;68451;49.510;6.026;2024-03-02T00:49:50;3.05;;;1.50;;
79052;SDS011;68451;49.510;6.026;2024-03-02T00:51:53;2.67;;;1.40;;
79052;SDS011;68451;49.510;6.026;2024-03-02T00:53:58;3.03;;;1.60;;
79052;SDS011;68451;49.510;6.026;2024-03-02T00:56:01;2.93;;;1.87;;
79052;SDS011;68451;49.510;6.026;2024-03-02T00:58:03;3.07;;;1.70;;
79052;SDS011;68451;49.510;6.026;2024-03-02T01:02:11;7.03;;;2.00;;
79052;SDS011;68451;49.510;6.026;2024-03-02T01:06:15;5.10;;;1.63;;
79052;SDS011;68451;49.510;6.026;2024-03-02T01:08:18;2.63;;;1.43;;
79052;SDS011;68451;49.510;6.026;2024-03-02T01:12:22;3.78;;;1.50;;
79052;SDS011;68451;49.510;6.026;2024-03-02T01:16:25;3.35;;;1.45;;
79052;SDS011;68451;49.510;6.026;2024-03-02T01:20:29;1.77;;;1.35;;
79052;SDS011;68451;49.510;6.026;2024-03-02T01:24:32;3.65;;;1.80;;
79052;SDS011;68451;49.510;6.026;2024-03-02T01:26:34;2.77;;;1.60;;
79052;SDS011;68451;49.510;6.026;2024-03-02T01:30:38;4.88;;;1.70;;
79052;SDS011;68451;49.510;6.026;2024-03-02T01:34:41;3.38;;;2.10;;
79052;SDS011;68451;49.510;6.026;2024-03-02T01:36:43;2.30;;;1.80;;
79052;SDS011;68451;49.510;6.026;2024-03-02T01:40:47;3.22;;;1.98;;
79052;SDS011;68451;49.510;6.026;2024-03-02T01:42:49;3.47;;;1.70;;
79052;SDS011;68451;49.510;6.026;2024-03-02T01:46:52;3.15;;;1.70;;
79052;SDS011;68451;49.510;6.026;2024-03-02T01:48:54;3.50;;;1.98;;
79052;SDS011;68451;49.510;6.026;2024-03-02T01:50:56;4.37;;;1.70;;
79052;SDS011;68451;49.510;6.026;2024-03-02T01:52:59;3.77;;;2.13;;
79052;SDS011;68451;49.510;6.026;2024-03-02T01:55:02;7.13;;;2.40;;
79052;SDS011;68451;49.510;6.026;2024-03-02T01:57:05;2.50;;;1.80;;
79052;SDS011;68451;49.510;6.026;2024-03-02T01:59:08;4.00;;;1.80;;
79052;SDS011;68451;49.510;6.026;2024-03-02T02:03:12;1.98;;;1.58;;
79052;SDS011;68451;49.510;6.026;2024-03-02T02:05:14;2.87;;;1.60;;
79052;SDS011;68451;49.510;6.026;2024-03-02T02:07:16;2.40;;;1.37;;
79052;SDS011;68451;49.510;6.026;2024-03-02T02:11:20;2.35;;;1.20;;
79052;SDS011;68451;49.510;6.026;2024-03-02T02:15:27;1.90;;;1.30;;
79052;SDS011;68451;49.510;6.026;2024-03-02T02:17:33;3.13;;;1.20;;
79052;SDS011;68451;49.510;6.026;2024-03-02T02:21:37;3.38;;;1.20;;
79052;SDS011;68451;49.510;6.026;2024-03-02T02:23:39;2.73;;;1.40;;
79052;SDS011;68451;49.510;6.026;2024-03-02T02:27:42;3.38;;;1.48;;
79052;SDS011;68451;49.510;6.026;2024-03-02T02:29:44;1.70;;;1.23;;
79052;SDS011;68451;49.510;6.026;2024-03-02T02:31:46;3.28;;;1.00;;
79052;SDS011;68451;49.510;6.026;2024-03-02T02:33:49;1.33;;;1.00;;
79052;SDS011;68451;49.510;6.026;2024-03-02T02:35:50;1.43;;;0.90;;
79052;SDS011;68451;49.510;6.026;2024-03-02T02:39:55;1.63;;;1.03;;
79052;SDS011;68451;49.510;6.026;2024-03-02T02:43:59;0.85;;;0.85;;
79052;SDS011;68451;49.510;6.026;2024-03-02T02:46:00;2.08;;;1.10;;
79052;SDS011;68451;49.510;6.026;2024-03-02T02:50:06;0.95;;;0.65;;
79052;SDS011;68451;49.510;6.026;2024-03-02T02:52:09;1.03;;;0.63;;
79052;SDS011;68451;49.510;6.026;2024-03-02T02:56:12;3.05;;;1.20;;
79052;SDS011;68451;49.510;6.026;2024-03-02T03:00:16;1.33;;;0.82;;
79052;SDS011;68451;49.510;6.026;2024-03-02T03:02:20;0.93;;;0.57;;
79052;SDS011;68451;49.510;6.026;2024-03-02T03:04:22;5.68;;;1.20;;
79052;SDS011;68451;49.510;6.026;2024-03-02T03:06:24;1.23;;;0.75;;
79052;SDS011;68451;49.510;6.026;2024-03-02T03:10:27;1.52;;;0.70;;
79052;SDS011;68451;49.510;6.026;2024-03-02T03:14:31;1.13;;;0.77;;
79052;SDS011;68451;49.510;6.026;2024-03-02T03:16:33;1.77;;;0.90;;
79052;SDS011;68451;49.510;6.026;2024-03-02T03:20:36;2.55;;;0.65;;
79052;SDS011;68451;49.510;6.026;2024-03-02T03:22:38;1.13;;;0.43;;
79052;SDS011;68451;49.510;6.026;2024-03-02T03:26:42;0.55;;;0.50;;
79052;SDS011;68451;49.510;6.026;2024-03-02T03:28:44;1.00;;;0.50;;
79052;SDS011;68451;49.510;6.026;2024-03-02T03:30:46;0.52;;;0.50;;
79052;SDS011;68451;49.510;6.026;2024-03-02T03:34:49;0.90;;;0.70;;
79052;SDS011;68451;49.510;6.026;2024-03-02T03:38:53;0.77;;;0.47;;
79052;SDS011;68451;49.510;6.026;2024-03-02T03:40:55;2.10;;;0.50;;
79052;SDS011;68451;49.510;6.026;2024-03-02T03:47:01;1.35;;;0.98;;
79052;SDS011;68451;49.510;6.026;2024-03-02T03:49:04;1.03;;;0.47;;
79052;SDS011;68451;49.510;6.026;2024-03-02T03:51:06;0.20;;;0.20;;
79052;SDS011;68451;49.510;6.026;2024-03-02T03:53:08;1.77;;;0.68;;
79052;SDS011;68451;49.510;6.026;2024-03-02T03:57:11;0.75;;;0.57;;
79052;SDS011;68451;49.510;6.026;2024-03-02T03:59:13;0.60;;;0.40;;
79052;SDS011;68451;49.510;6.026;2024-03-02T04:01:15;1.08;;;0.60;;
79052;SDS011;68451;49.510;6.026;2024-03-02T04:03:17;0.67;;;0.60;;
79052;SDS011;68451;49.510;6.026;2024-03-02T04:07:20;0.40;;;0.40;;
79052;SDS011;68451;49.510;6.026;2024-03-02T04:09:22;1.35;;;0.57;;
79052;SDS011;68451;49.510;6.026;2024-03-02T04:13:26;0.95;;;0.68;;
79052;SDS011;68451;49.510;6.026;2024-03-02T04:15:28;0.70;;;0.60;;
79052;SDS011;68451;49.510;6.026;2024-03-02T04:17:31;0.50;;;0.50;;
79052;SDS011;68451;49.510;6.026;2024-03-02T04:19:33;0.40;;;0.40;;
79052;SDS011;68451;49.510;6.026;2024-03-02T04:21:35;0.97;;;0.50;;
79052;SDS011;68451;49.510;6.026;2024-03-02T04:25:39;0.90;;;0.47;;
79052;SDS011;68451;49.510;6.026;2024-03-02T04:29:43;0.68;;;0.60;;
79052;SDS011;68451;49.510;6.026;2024-03-02T04:33:46;1.85;;;0.73;;
79052;SDS011;68451;49.510;6.026;2024-03-02T04:35:48;1.58;;;0.65;;
79052;SDS011;68451;49.510;6.026;2024-03-02T04:37:50;2.67;;;0.67;;
79052;SDS011;68451;49.510;6.026;2024-03-02T04:41:54;7.05;;;2.58;;
79052;SDS011;68451;49.510;6.026;2024-03-02T04:45:58;0.65;;;0.52;;
79052;SDS011;68451;49.510;6.026;2024-03-02T04:48:00;1.13;;;0.80;;
79052;SDS011;68451;49.510;6.026;2024-03-02T04:52:04;0.98;;;0.52;;
79052;SDS011;68451;49.510;6.026;2024-03-02T04:54:06;0.67;;;0.47;;
79052;SDS011;68451;49.510;6.026;2024-03-02T04:58:35;1.60;;;0.60;;
79052;SDS011;68451;49.510;6.026;2024-03-02T05:00:37;1.88;;;1.00;;
79052;SDS011;68451;49.510;6.026;2024-03-02T05:04:52;0.70;;;0.53;;
79052;SDS011;68451;49.510;6.026;2024-03-02T05:06:54;2.05;;;0.60;;
79052;SDS011;68451;49.510;6.026;2024-03-02T05:08:58;0.80;;;0.60;;
79052;SDS011;68451;49.510;6.026;2024-03-02T05:11:00;1.30;;;0.70;;
79052;SDS011;68451;49.510;6.026;2024-03-02T05:13:21;0.70;;;0.40;;
79052;SDS011;68451;49.510;6.026;2024-03-02T05:15:23;0.90;;;0.80;;
79052;SDS011;68451;49.510;6.026;2024-03-02T05:19:27;1.45;;;0.60;;
79052;SDS011;68451;49.510;6.026;2024-03-02T05:21:28;1.08;;;0.75;;
79052;SDS011;68451;49.510;6.026;2024-03-02T05:25:32;3.13;;;0.80;;
79052;SDS011;68451;49.510;6.026;2024-03-02T05:27:34;0.85;;;0.40;;
79052;SDS011;68451;49.510;6.026;2024-03-02T05:29:36;1.60;;;0.83;;
79052;SDS011;68451;49.510;6.026;2024-03-02T05:31:38;2.87;;;0.83;;
79052;SDS011;68451;49.510;6.026;2024-03-02T05:35:43;1.50;;;0.60;;
79052;SDS011;68451;49.510;6.026;2024-03-02T05:37:45;1.40;;;0.70;;
79052;SDS011;68451;49.510;6.026;2024-03-02T05:39:47;1.30;;;0.55;;
79052;SDS011;68451;49.510;6.026;2024-03-02T05:41:49;0.85;;;0.57;;
79052;SDS011;68451;49.510;6.026;2024-03-02T05:43:50;1.08;;;0.60;;
79052;SDS011;68451;49.510;6.026;2024-03-02T05:45:52;1.73;;;0.80;;
79052;SDS011;68451;49.510;6.026;2024-03-02T05:49:56;1.60;;;0.73;;
79052;SDS011;68451;49.510;6.026;2024-03-02T05:51:58;0.90;;;0.60;;
79052;SDS011;68451;49.510;6.026;2024-03-02T05:56:01;2.05;;;0.73;;
79052;SDS011;68451;49.510;6.026;2024-03-02T05:58:05;0.77;;;0.70;;
79052;SDS011;68451;49.510;6.026;2024-03-02T06:00:07;1.67;;;1.38;;
79052;SDS011;68451;49.510;6.026;2024-03-02T06:02:10;2.53;;;1.03;;
79052;SDS011;68451;49.510;6.026;2024-03-02T06:06:14;1.10;;;0.45;;
79052;SDS011;68451;49.510;6.026;2024-03-02T06:08:15;0.52;;;0.50;;
79052;SDS011;68451;49.510;6.026;2024-03-02T06:10:17;1.08;;;0.70;;
79052;SDS011;68451;49.510;6.026;2024-03-02T06:14:21;2.28;;;0.80;;
79052;SDS011;68451;49.510;6.026;2024-03-02T06:16:23;3.83;;;1.57;;
79052;SDS011;68451;49.510;6.026;2024-03-02T06:18:25;1.85;;;0.82;;
79052;SDS011;68451;49.510;6.026;2024-03-02T06:20:27;1.33;;;0.80;;
79052;SDS011;68451;49.510;6.026;2024-03-02T06:22:36;1.37;;;0.87;;
79052;SDS011;68451;49.510;6.026;2024-03-02T06:26:40;1.48;;;0.88;;
79052;SDS011;68451;49.510;6.026;2024-03-02T06:30:44;1.17;;;1.10;;
79052;SDS011;68451;49.510;6.026;2024-03-02T06:32:46;1.83;;;1.20;;
79052;SDS011;68451;49.510;6.026;2024-03-02T06:34:48;2.47;;;1.50;;
79052;SDS011;68451;49.510;6.026;2024-03-02T06:36:50;2.53;;;1.88;;
79052;SDS011;68451;49.510;6.026;2024-03-02T06:40:53;3.05;;;1.60;;
79052;SDS011;68451;49.510;6.026;2024-03-02T06:42:56;2.23;;;1.97;;
79052;SDS011;68451;49.510;6.026;2024-03-02T06:44:58;2.63;;;1.90;;
79052;SDS011;68451;49.510;6.026;2024-03-02T06:47:01;2.33;;;1.60;;
79052;SDS011;68451;49.510;6.026;2024-03-02T06:51:05;2.20;;;1.60;;
79052;SDS011;68451;49.510;6.026;2024-03-02T06:55:09;3.28;;;1.67;;
79052;SDS011;68451;49.510;6.026;2024-03-02T06:59:12;2.58;;;1.40;;
79052;SDS011;68451;49.510;6.026;2024-03-02T07:03:16;2.10;;;1.67;;
79052;SDS011;68451;49.510;6.026;2024-03-02T07:07:19;2.10;;;1.30;;
79052;SDS011;68451;49.510;6.026;2024-03-02T07:09:22;3.27;;;1.70;;
79052;SDS011;68451;49.510;6.026;2024-03-02T07:11:27;1.90;;;1.53;;
79052;SDS011;68451;49.510;6.026;2024-03-02T07:15:31;2.60;;;1.48;;
79052;SDS011;68451;49.510;6.026;2024-03-02T07:17:53;2.45;;;1.98;;
79052;SDS011;68451;49.510;6.026;2024-03-02T07:21:56;2.63;;;1.48;;
79052;SDS011;68451;49.510;6.026;2024-03-02T07:26:00;1.92;;;1.60;;
79052;SDS011;68451;49.510;6.026;2024-03-02T07:28:06;3.80;;;1.80;;
79052;SDS011;68451;49.510;6.026;2024-03-02T07:30:08;2.73;;;1.20;;
79052;SDS011;68451;49.510;6.026;2024-03-02T07:32:12;3.10;;;1.80;;
79052;SDS011;68451;49.510;6.026;2024-03-02T07:36:16;2.70;;;1.58;;
79052;SDS011;68451;49.510;6.026;2024-03-02T07:40:19;3.40;;;1.85;;
79052;SDS011;68451;49.510;6.026;2024-03-02T07:44:23;2.58;;;1.65;;
79052;SDS011;68451;49.510;6.026;2024-03-02T07:48:27;4.22;;;2.45;;
79052;SDS011;68451;49.510;6.026;2024-03-02T07:50:29;2.23;;;1.90;;
79052;SDS011;68451;49.510;6.026;2024-03-02T07:52:36;2.13;;;1.60;;
79052;SDS011;68451;49.510;6.026;2024-03-02T07:56:39;4.32;;;2.40;;
79052;SDS011;68451;49.510;6.026;2024-03-02T08:00:43;1.70;;;1.30;;
79052;SDS011;68451;49.510;6.026;2024-03-02T08:02:46;2.70;;;1.90;;
79052;SDS011;68451;49.510;6.026;2024-03-02T08:04:47;1.77;;;1.33;;
79052;SDS011;68451;49.510;6.026;2024-03-02T08:08:51;6.75;;;2.00;;
79052;SDS011;68451;49.510;6.026;2024-03-02T08:12:55;2.78;;;1.83;;
79052;SDS011;68451;49.510;6.026;2024-03-02T08:14:56;4.40;;;2.07;;
79052;SDS011;68451;49.510;6.026;2024-03-02T08:19:01;2.83;;;2.53;;
79052;SDS011;68451;49.510;6.026;2024-03-02T08:21:05;9.57;;;3.10;;
79052;SDS011;68451;49.510;6.026;2024-03-02T08:23:07;2.30;;;1.83;;
79052;SDS011;68451;49.510;6.026;2024-03-02T08:25:09;2.77;;;2.00;;
79052;SDS011;68451;49.510;6.026;2024-03-02T08:27:11;4.60;;;2.50;;
79052;SDS011;68451;49.510;6.026;2024-03-02T08:29:13;4.07;;;3.03;;
79052;SDS011;68451;49.510;6.026;2024-03-02T08:33:17;3.75;;;2.78;;
79052;SDS011;68451;49.510;6.026;2024-03-02T08:35:19;3.00;;;2.17;;
79052;SDS011;68451;49.510;6.026;2024-03-02T08:39:22;3.63;;;2.47;;
79052;SDS011;68451;49.510;6.026;2024-03-02T08:41:24;3.10;;;2.73;;
79052;SDS011;68451;49.510;6.026;2024-03-02T08:45:28;4.57;;;2.38;;
79052;SDS011;68451;49.510;6.026;2024-03-02T08:47:30;2.43;;;2.23;;
79052;SDS011;68451;49.510;6.026;2024-03-02T08:49:32;2.70;;;2.10;;
79052;SDS011;68451;49.510;6.026;2024-03-02T08:51:34;2.90;;;2.37;;
79052;SDS011;68451;49.510;6.026;2024-03-02T08:53:36;4.50;;;2.33;;
79052;SDS011;68451;49.510;6.026;2024-03-02T08:55:39;3.87;;;2.13;;
79052;SDS011;68451;49.510;6.026;2024-03-02T08:59:43;2.67;;;1.97;;
79052;SDS011;68451;49.510;6.026;2024-03-02T09:01:45;3.10;;;2.17;;
79052;SDS011;68451;49.510;6.026;2024-03-02T09:03:47;2.93;;;1.93;;
79052;SDS011;68451;49.510;6.026;2024-03-02T09:05:50;2.43;;;1.93;;
79052;SDS011;68451;49.510;6.026;2024-03-02T09:09:54;4.82;;;2.25;;
79052;SDS011;68451;49.510;6.026;2024-03-02T09:13:59;5.57;;;2.17;;
79052;SDS011;68451;49.510;6.026;2024-03-02T09:16:01;7.40;;;3.17;;
79052;SDS011;68451;49.510;6.026;2024-03-02T09:18:04;5.17;;;1.90;;
79052;SDS011;68451;49.510;6.026;2024-03-02T09:20:06;2.50;;;1.73;;
79052;SDS011;68451;49.510;6.026;2024-03-02T09:22:08;3.03;;;2.07;;
79052;SDS011;68451;49.510;6.026;2024-03-02T09:24:11;3.57;;;1.70;;
79052;SDS011;68451;49.510;6.026;2024-03-02T09:26:17;2.57;;;1.97;;
79052;SDS011;68451;49.510;6.026;2024-03-02T09:28:21;2.70;;;1.63;;
79052;SDS011;68451;49.510;6.026;2024-03-02T09:32:24;2.10;;;1.40;;
79052;SDS011;68451;49.510;6.026;2024-03-02T09:36:28;2.17;;;1.50;;
79052;SDS011;68451;49.510;6.026;2024-03-02T09:38:32;4.63;;;1.70;;
79052;SDS011;68451;49.510;6.026;2024-03-02T09:40:35;3.73;;;1.33;;
79052;SDS011;68451;49.510;6.026;2024-03-02T09:42:37;3.67;;;1.83;;
79052;SDS011;68451;49.510;6.026;2024-03-02T09:44:40;2.00;;;1.17;;
79052;SDS011;68451;49.510;6.026;2024-03-02T09:46:42;5.17;;;1.80;;
79052;SDS011;68451;49.510;6.026;2024-03-02T09:48:45;6.10;;;1.80;;
79052;SDS011;68451;49.510;6.026;2024-03-02T09:50:47;3.20;;;1.80;;
79052;SDS011;68451;49.510;6.026;2024-03-02T09:54:52;2.10;;;1.40;;
79052;SDS011;68451;49.510;6.026;2024-03-02T09:56:54;3.40;;;1.67;;
79052;SDS011;68451;49.510;6.026;2024-03-02T09:58:56;2.20;;;1.80;;
79052;SDS011;68451;49.510;6.026;2024-03-02T10:02:59;2.20;;;1.25;;
79052;SDS011;68451;49.510;6.026;2024-03-02T10:05:02;2.40;;;1.30;;
79052;SDS011;68451;49.510;6.026;2024-03-02T10:09:26;2.20;;;1.25;;
79052;SDS011;68451;49.510;6.026;2024-03-02T10:11:31;1.53;;;1.20;;
79052;SDS011;68451;49.510;6.026;2024-03-02T10:13:35;1.33;;;1.10;;
79052;SDS011;68451;49.510;6.026;2024-03-02T10:17:39;2.87;;;1.53;;
79052;SDS011;68451;49.510;6.026;2024-03-02T10:19:41;1.60;;;1.20;;
79052;SDS011;68451;49.510;6.026;2024-03-02T10:21:46;2.70;;;1.57;;
79052;SDS011;68451;49.510;6.026;2024-03-02T10:23:50;1.70;;;1.10;;
79052;SDS011;68451;49.510;6.026;2024-03-02T10:27:58;3.30;;;1.17;;
79052;SDS011;68451;49.510;6.026;2024-03-02T10:30:07;2.13;;;1.10;;
79052;SDS011;68451;49.510;6.026;2024-03-02T10:32:12;2.53;;;1.70;;
79052;SDS011;68451;49.510;6.026;2024-03-02T10:34:14;2.90;;;1.00;;
79052;SDS011;68451;49.510;6.026;2024-03-02T10:36:17;2.27;;;1.20;;
79052;SDS011;68451;49.510;6.026;2024-03-02T10:38:19;2.43;;;1.20;;
79052;SDS011;68451;49.510;6.026;2024-03-02T10:40:22;1.90;;;1.23;;
79052;SDS011;68451;49.510;6.026;2024-03-02T10:42:24;2.40;;;0.97;;
79052;SDS011;68451;49.510;6.026;2024-03-02T10:44:27;1.83;;;1.20;;
79052;SDS011;68451;49.510;6.026;2024-03-02T10:46:30;2.93;;;1.20;;
79052;SDS011;68451;49.510;6.026;2024-03-02T10:48:33;2.90;;;1.17;;
79052;SDS011;68451;49.510;6.026;2024-03-02T10:50:38;3.33;;;1.40;;
79052;SDS011;68451;49.510;6.026;2024-03-02T10:52:40;2.23;;;1.13;;
79052;SDS011;68451;49.510;6.026;2024-03-02T10:54:42;1.20;;;0.90;;
79052;SDS011;68451;49.510;6.026;2024-03-02T10:56:45;2.00;;;1.40;;
79052;SDS011;68451;49.510;6.026;2024-03-02T10:58:48;2.33;;;1.10;;
79052;SDS011;68451;49.510;6.026;2024-03-02T11:00:56;3.03;;;1.43;;
79052;SDS011;68451;49.510;6.026;2024-03-02T11:03:04;2.63;;;1.43;;
79052;SDS011;68451;49.510;6.026;2024-03-02T11:05:07;3.40;;;1.50;;
79052;SDS011;68451;49.510;6.026;2024-03-02T11:07:12;3.80;;;1.67;;
79052;SDS011;68451;49.510;6.026;2024-03-02T11:09:14;1.93;;;1.40;;
79052;SDS011;68451;49.510;6.026;2024-03-02T11:11:22;3.27;;;1.50;;
79052;SDS011;68451;49.510;6.026;2024-03-02T11:13:31;3.60;;;1.77;;
79052;SDS011;68451;49.510;6.026;2024-03-02T11:15:36;2.93;;;1.77;;
79052;SDS011;68451;49.510;6.026;2024-03-02T11:17:39;3.60;;;1.57;;
79052;SDS011;68451;49.510;6.026;2024-03-02T11:19:42;4.17;;;1.80;;
79052;SDS011;68451;49.510;6.026;2024-03-02T11:21:45;2.37;;;1.70;;
79052;SDS011;68451;49.510;6.026;2024-03-02T11:23:47;2.90;;;1.90;;
79052;SDS011;68451;49.510;6.026;2024-03-02T11:29:56;3.00;;;2.00;;
79052;SDS011;68451;49.510;6.026;2024-03-02T11:34:18;3.30;;;1.90;;
79052;SDS011;68451;49.510;6.026;2024-03-02T11:36:31;2.97;;;1.83;;
79052;SDS011;68451;49.510;6.026;2024-03-02T11:38:33;3.23;;;2.30;;
79052;SDS011;68451;49.510;6.026;2024-03-02T11:40:36;2.37;;;1.93;;
79052;SDS011;68451;49.510;6.026;2024-03-02T11:42:40;11.10;;;5.93;;
79052;SDS011;68451;49.510;6.026;2024-03-02T11:44:47;4.93;;;2.30;;
79052;SDS011;68451;49.510;6.026;2024-03-02T11:46:59;3.20;;;1.90;;
79052;SDS011;68451;49.510;6.026;2024-03-02T11:49:02;4.93;;;3.20;;
79052;SDS011;68451;49.510;6.026;2024-03-02T11:51:04;3.80;;;2.30;;
79052;SDS011;68451;49.510;6.026;2024-03-02T11:53:06;4.47;;;2.23;;
79052;SDS011;68451;49.510;6.026;2024-03-02T11:55:14;3.47;;;1.90;;
79052;SDS011;68451;49.510;6.026;2024-03-02T11:57:16;6.13;;;2.47;;
79052;SDS011;68451;49.510;6.026;2024-03-02T11:59:20;4.13;;;2.13;;
79052;SDS011;68451;49.510;6.026;2024-03-02T12:01:23;2.50;;;1.97;;
79052;SDS011;68451;49.510;6.026;2024-03-02T12:03:25;10.00;;;6.57;;
79052;SDS011;68451;49.510;6.026;2024-03-02T12:05:28;2.83;;;1.60;;
79052;SDS011;68451;49.510;6.026;2024-03-02T12:07:31;3.20;;;2.20;;
79052;SDS011;68451;49.510;6.026;2024-03-02T12:09:33;3.60;;;2.13;;
79052;SDS011;68451;49.510;6.026;2024-03-02T12:11:35;2.07;;;1.70;;
79052;SDS011;68451;49.510;6.026;2024-03-02T12:13:37;1.77;;;1.43;;
79052;SDS011;68451;49.510;6.026;2024-03-02T12:15:39;4.40;;;1.90;;
79052;SDS011;68451;49.510;6.026;2024-03-02T12:17:44;2.17;;;1.60;;
79052;SDS011;68451;49.510;6.026;2024-03-02T12:19:46;2.23;;;1.80;;
79052;SDS011;68451;49.510;6.026;2024-03-02T12:21:48;2.57;;;1.37;;
79052;SDS011;68451;49.510;6.026;2024-03-02T12:23:50;2.07;;;1.67;;
79052;SDS011;68451;49.510;6.026;2024-03-02T12:25:52;2.47;;;1.53;;
79052;SDS011;68451;49.510;6.026;2024-03-02T12:27:55;2.93;;;1.60;;
79052;SDS011;68451;49.510;6.026;2024-03-02T12:29:59;2.33;;;1.73;;
79052;SDS011;68451;49.510;6.026;2024-03-02T12:32:01;5.07;;;1.93;;
79052;SDS011;68451;49.510;6.026;2024-03-02T12:34:03;2.43;;;1.47;;
79052;SDS011;68451;49.510;6.026;2024-03-02T12:36:09;2.57;;;1.63;;
79052;SDS011;68451;49.510;6.026;2024-03-02T12:38:11;2.20;;;1.40;;
79052;SDS011;68451;49.510;6.026;2024-03-02T12:40:13;2.43;;;1.53;;
79052;SDS011;68451;49.510;6.026;2024-03-02T12:42:16;3.33;;;1.67;;
79052;SDS011;68451;49.510;6.026;2024-03-02T12:46:19;3.85;;;1.42;;
79052;SDS011;68451;49.510;6.026;2024-03-02T12:50:23;2.50;;;1.85;;
79052;SDS011;68451;49.510;6.026;2024-03-02T12:52:25;3.03;;;2.17;;
79052;SDS011;68451;49.510;6.026;2024-03-02T12:54:27;2.60;;;1.70;;
79052;SDS011;68451;49.510;6.026;2024-03-02T12:56:29;1.95;;;1.25;;
79052;SDS011;68451;49.510;6.026;2024-03-02T12:58:38;2.55;;;1.67;;
79052;SDS011;68451;49.510;6.026;2024-03-02T13:00:41;1.98;;;1.33;;
79052;SDS011;68451;49.510;6.026;2024-03-02T13:02:43;3.13;;;1.63;;
79052;SDS011;68451;49.510;6.026;2024-03-02T13:04:57;2.10;;;1.13;;
79052;SDS011;68451;49.510;6.026;2024-03-02T13:06:59;1.67;;;1.35;;
79052;SDS011;68451;49.510;6.026;2024-03-02T13:09:03;1.42;;;1.13;;
79052;SDS011;68451;49.510;6.026;2024-03-02T13:11:05;1.65;;;1.00;;
79052;SDS011;68451;49.510;6.026;2024-03-02T13:13:08;2.53;;;1.30;;
79052;SDS011;68451;49.510;6.026;2024-03-02T13:15:10;3.90;;;1.70;;
79052;SDS011;68451;49.510;6.026;2024-03-02T13:17:18;4.45;;;1.60;;
79052;SDS011;68451;49.510;6.026;2024-03-02T13:19:20;3.15;;;2.13;;
79052;SDS011;68451;49.510;6.026;2024-03-02T13:21:22;1.63;;;1.13;;
79052;SDS011;68451;49.510;6.026;2024-03-02T13:23:24;1.73;;;1.38;;
79052;SDS011;68451;49.510;6.026;2024-03-02T13:27:30;1.75;;;1.35;;
79052;SDS011;68451;49.510;6.026;2024-03-02T13:29:33;2.20;;;1.27;;
79052;SDS011;68451;49.510;6.026;2024-03-02T13:31:35;2.45;;;1.10;;
79052;SDS011;68451;49.510;6.026;2024-03-02T13:35:38;1.88;;;1.30;;
79052;SDS011;68451;49.510;6.026;2024-03-02T13:37:40;5.07;;;1.45;;
79052;SDS011;68451;49.510;6.026;2024-03-02T13:39:43;2.28;;;1.20;;
79052;SDS011;68451;49.510;6.026;2024-03-02T13:41:45;2.38;;;1.30;;
79052;SDS011;68451;49.510;6.026;2024-03-02T13:43:54;5.43;;;2.40;;
79052;SDS011;68451;49.510;6.026;2024-03-02T13:45:55;1.70;;;1.15;;
79052;SDS011;68451;49.510;6.026;2024-03-02T13:49:59;2.40;;;0.80;;
79052;SDS011;68451;49.510;6.026;2024-03-02T13:52:04;2.03;;;1.00;;
79052;SDS011;68451;49.510;6.026;2024-03-02T13:54:11;2.03;;;1.10;;
79052;SDS011;68451;49.510;6.026;2024-03-02T13:56:13;1.23;;;1.00;;
79052;SDS011;68451;49.510;6.026;2024-03-02T13:58:15;1.45;;;1.10;;
79052;SDS011;68451;49.510;6.026;2024-03-02T14:00:32;0.75;;;0.70;;
79052;SDS011;68451;49.510;6.026;2024-03-02T14:02:34;1.20;;;1.00;;
79052;SDS011;68451;49.510;6.026;2024-03-02T14:04:36;4.05;;;1.23;;
79052;SDS011;68451;49.510;6.026;2024-03-02T14:06:39;1.05;;;0.88;;
79052;SDS011;68451;49.510;6.026;2024-03-02T14:08:41;1.80;;;0.90;;
79052;SDS011;68451;49.510;6.026;2024-03-02T14:10:46;1.63;;;0.93;;
79052;SDS011;68451;49.510;6.026;2024-03-02T14:12:48;2.30;;;1.33;;
79052;SDS011;68451;49.510;6.026;2024-03-02T14:14:50;4.13;;;1.83;;
79052;SDS011;68451;49.510;6.026;2024-03-02T14:16:54;4.78;;;1.35;;
79052;SDS011;68451;49.510;6.026;2024-03-02T14:19:05;3.13;;;1.30;;
79052;SDS011;68451;49.510;6.026;2024-03-02T14:21:08;2.53;;;1.40;;
79052;SDS011;68451;49.510;6.026;2024-03-02T14:23:09;1.35;;;1.00;;
79052;SDS011;68451;49.510;6.026;2024-03-02T14:25:11;2.50;;;0.95;;
79052;SDS011;68451;49.510;6.026;2024-03-02T14:27:13;1.00;;;0.90;;
79052;SDS011;68451;49.510;6.026;2024-03-02T14:29:32;1.35;;;1.08;;
79052;SDS011;68451;49.510;6.026;2024-03-02T14:31:38;1.37;;;0.90;;
79052;SDS011;68451;49.510;6.026;2024-03-02T14:33:40;1.48;;;1.08;;
79052;SDS011;68451;49.510;6.026;2024-03-02T14:35:42;0.90;;;0.75;;
79052;SDS011;68451;49.510;6.026;2024-03-02T14:37:43;1.50;;;0.90;;
79052;SDS011;68451;49.510;6.026;2024-03-02T14:39:45;0.82;;;0.73;;
79052;SDS011;68451;49.510;6.026;2024-03-02T14:41:47;1.48;;;1.10;;
79052;SDS011;68451;49.510;6.026;2024-03-02T14:43:50;2.70;;;1.48;;
79052;SDS011;68451;49.510;6.026;2024-03-02T14:45:52;1.40;;;1.27;;
79052;SDS011;68451;49.510;6.026;2024-03-02T14:47:54;1.58;;;1.40;;
79052;SDS011;68451;49.510;6.026;2024-03-02T14:49:57;2.13;;;1.40;;
79052;SDS011;68451;49.510;6.026;2024-03-02T14:51:59;3.05;;;0.80;;
79052;SDS011;68451;49.510;6.026;2024-03-02T14:54:01;2.22;;;1.25;;
79052;SDS011;68451;49.510;6.026;2024-03-02T14:56:04;1.75;;;1.30;;
79052;SDS011;68451;49.510;6.026;2024-03-02T14:58:07;1.20;;;0.90;;
79052;SDS011;68451;49.510;6.026;2024-03-02T15:00:10;1.45;;;1.15;;
79052;SDS011;68451;49.510;6.026;2024-03-02T15:02:13;1.58;;;1.08;;
79052;SDS011;68451;49.510;6.026;2024-03-02T15:04:15;1.85;;;1.15;;
79052;SDS011;68451;49.510;6.026;2024-03-02T15:06:21;1.40;;;1.03;;
79052;SDS011;68451;49.510;6.026;2024-03-02T15:10:24;1.17;;;0.85;;
79052;SDS011;68451;49.510;6.026;2024-03-02T15:12:26;1.75;;;1.20;;
79052;SDS011;68451;49.510;6.026;2024-03-02T15:14:28;1.60;;;1.17;;
79052;SDS011;68451;49.510;6.026;2024-03-02T15:16:30;3.30;;;1.87;;
79052;SDS011;68451;49.510;6.026;2024-03-02T15:18:32;2.83;;;1.58;;
79052;SDS011;68451;49.510;6.026;2024-03-02T15:20:34;2.30;;;1.60;;
79052;SDS011;68451;49.510;6.026;2024-03-02T15:22:36;2.07;;;1.33;;
79052;SDS011;68451;49.510;6.026;2024-03-02T15:24:38;2.17;;;1.03;;
79052;SDS011;68451;49.510;6.026;2024-03-02T15:26:40;3.03;;;1.30;;
79052;SDS011;68451;49.510;6.026;2024-03-02T15:32:45;2.60;;;1.55;;
79052;SDS011;68451;49.510;6.026;2024-03-02T15:34:47;1.90;;;1.15;;
79052;SDS011;68451;49.510;6.026;2024-03-02T15:36:49;2.90;;;1.50;;